Time;durP1;ratioP1;P1;durP2;ratioP2;P2;SDS_P1;SDS_P2;PMS_P1;PMS_P2;Temp;Humidity;BMP_temperature;BMP_pressure;BME280_temperature;BME280_humidity;BME280_pressure;Samples;Min_cycle;Max_cycle;Signal;HPM_P1;HPM_P2
2023/11/06 00:00:24;;;;;;;0.70;0.38;;;8.70;99.90;;;;;;5030090;28;20033;-63
2023/11/06 00:02:50;;;;;;;0.82;0.60;;;8.70;99.90;;;;;;5023065;28;20047;-63
2023/11/06 00:05:22;;;;;;;3.28;0.40;;;8.60;99.90;;;;;;5028419;28;20045;-63
2023/11/06 00:07:54;;;;;;;1.05;0.60;;;8.60;99.90;;;;;;5031898;28;20147;-63
2023/11/06 00:10:25;;;;;;;0.80;0.50;;;8.60;99.90;;;;;;5041460;28;20048;-63
2023/11/06 00:12:52;;;;;;;1.88;0.60;;;8.60;99.90;;;;;;5028119;28;20080;-63
2023/11/06 00:15:24;;;;;;;1.95;0.40;;;8.50;99.90;;;;;;5046625;28;20051;-63
2023/11/06 00:17:51;;;;;;;1.58;0.30;;;8.50;99.90;;;;;;5032073;28;20052;-63
2023/11/06 00:20:23;;;;;;;1.25;0.40;;;8.50;99.90;;;;;;5037888;28;20042;-63
2023/11/06 00:22:50;;;;;;;0.82;0.30;;;8.50;99.90;;;;;;5035141;28;20588;-63
2023/11/06 00:25:22;;;;;;;1.15;0.40;;;8.50;99.90;;;;;;5036597;28;20127;-63
2023/11/06 00:27:49;;;;;;;1.80;0.40;;;8.50;99.90;;;;;;5038304;28;20575;-63
2023/11/06 00:30:21;;;;;;;0.75;0.38;;;8.50;99.90;;;;;;5006969;28;20049;-63
2023/11/06 00:32:47;;;;;;;1.48;0.30;;;8.40;99.90;;;;;;5045835;28;20505;-63
2023/11/06 00:35:19;;;;;;;0.80;0.50;;;8.30;99.90;;;;;;5042986;28;20050;-63
2023/11/06 00:37:51;;;;;;;0.85;0.40;;;8.30;99.90;;;;;;5030526;28;20609;-63
2023/11/06 00:40:23;;;;;;;4.47;0.70;;;8.40;99.90;;;;;;5046223;28;20044;-63
2023/11/06 00:42:50;;;;;;;0.63;0.40;;;8.40;99.90;;;;;;5042712;28;20068;-63
2023/11/06 00:45:22;;;;;;;2.15;0.43;;;8.30;99.90;;;;;;5039382;28;20127;-64
2023/11/06 00:47:54;;;;;;;3.65;1.10;;;8.30;99.90;;;;;;5031037;28;20050;-63
2023/11/06 00:50:26;;;;;;;1.40;0.50;;;8.30;99.90;;;;;;5046575;28;20038;-63
2023/11/06 00:52:58;;;;;;;2.67;0.50;;;8.30;99.90;;;;;;5018580;28;20071;-63
2023/11/06 00:55:30;;;;;;;1.42;0.40;;;8.30;99.90;;;;;;5040172;28;20055;-63
2023/11/06 00:58:02;;;;;;;1.27;0.60;;;8.40;99.90;;;;;;5030807;28;20041;-63
2023/11/06 01:00:29;;;;;;;2.60;0.45;;;8.40;99.90;;;;;;5047681;28;20064;-63
2023/11/06 01:03:01;;;;;;;2.75;1.00;;;8.40;99.90;;;;;;5028602;28;20048;-63
2023/11/06 01:05:33;;;;;;;3.35;0.50;;;8.30;99.90;;;;;;5024450;28;20051;-64
2023/11/06 01:08:05;;;;;;;0.70;0.40;;;8.30;99.90;;;;;;5046934;28;20053;-63
2023/11/06 01:10:37;;;;;;;1.17;0.50;;;8.30;99.90;;;;;;5035803;28;20273;-63
2023/11/06 01:13:09;;;;;;;0.47;0.28;;;8.30;99.90;;;;;;5036046;28;20067;-64
2023/11/06 01:15:42;;;;;;;2.10;0.47;;;8.30;99.90;;;;;;5033894;28;20053;-63
2023/11/06 01:18:14;;;;;;;1.52;0.60;;;8.20;99.90;;;;;;5015770;28;20053;-63
2023/11/06 01:20:45;;;;;;;1.77;0.30;;;8.20;99.90;;;;;;5047844;28;20509;-63
2023/11/06 01:23:17;;;;;;;1.65;0.35;;;8.20;99.90;;;;;;5047604;28;20057;-63
2023/11/06 01:25:45;;;;;;;6.13;1.38;;;8.20;99.90;;;;;;5029563;28;20140;-63
2023/11/06 01:28:12;;;;;;;3.08;0.47;;;8.10;99.90;;;;;;5038958;28;20048;-63
2023/11/06 01:30:44;;;;;;;1.23;0.40;;;8.20;99.90;;;;;;5040799;28;20123;-63
2023/11/06 01:33:16;;;;;;;2.05;0.32;;;8.20;99.90;;;;;;5023833;28;20085;-63
2023/11/06 01:35:48;;;;;;;1.27;0.30;;;8.10;99.90;;;;;;5049935;28;20056;-63
2023/11/06 01:38:19;;;;;;;1.42;0.80;;;8.10;99.90;;;;;;5022599;28;20137;-63
2023/11/06 01:40:52;;;;;;;1.08;0.38;;;8.20;99.90;;;;;;5032357;28;20045;-63
2023/11/06 01:43:24;;;;;;;1.75;1.05;;;8.20;99.90;;;;;;5035705;28;20128;-63
2023/11/06 01:45:55;;;;;;;1.33;0.40;;;8.20;99.90;;;;;;5047438;28;20577;-63
2023/11/06 01:48:29;;;;;;;1.67;0.65;;;8.10;99.90;;;;;;5028066;28;20049;-63
2023/11/06 01:51:01;;;;;;;0.60;0.30;;;8.10;99.90;;;;;;5046568;28;20172;-63
2023/11/06 01:53:29;;;;;;;2.35;0.60;;;8.10;99.90;;;;;;5047435;28;20053;-63
2023/11/06 01:56:03;;;;;;;1.63;0.30;;;8.10;99.90;;;;;;5045576;28;20123;-63
2023/11/06 01:58:35;;;;;;;;;;;8.10;99.90;;;;;;5043548;28;20045;-63
2023/11/06 02:01:08;;;;;;;1.15;0.40;;;8.10;99.90;;;;;;5038168;28;19944;-63
2023/11/06 02:03:40;;;;;;;3.33;0.35;;;8.10;99.90;;;;;;5040768;28;20038;-63
2023/11/06 02:06:12;;;;;;;1.27;0.30;;;8.10;99.90;;;;;;5019418;28;20682;-64
2023/11/06 02:08:39;;;;;;;1.20;0.47;;;8.10;99.90;;;;;;5035045;28;20052;-63
2023/11/06 02:11:11;;;;;;;1.63;0.20;;;8.10;99.90;;;;;;5047201;28;20539;-63
2023/11/06 02:13:43;;;;;;;0.95;0.30;;;8.10;99.90;;;;;;5047794;28;20045;-63
2023/11/06 02:16:10;;;;;;;0.93;0.30;;;8.20;99.90;;;;;;5030545;28;20645;-63
2023/11/06 02:18:42;;;;;;;0.45;0.22;;;8.30;99.90;;;;;;5029110;28;20490;-63
2023/11/06 02:21:14;;;;;;;1.80;0.45;;;8.30;99.90;;;;;;5042452;28;20037;-63
2023/11/06 02:23:46;;;;;;;2.17;0.57;;;8.30;99.90;;;;;;5035836;28;20107;-63
2023/11/06 02:26:18;;;;;;;2.22;0.50;;;8.40;99.90;;;;;;5019707;28;20049;-63
2023/11/06 02:28:54;;;;;;;0.88;0.30;;;8.40;99.90;;;;;;5048651;28;20047;-64
2023/11/06 02:31:27;;;;;;;1.15;0.20;;;8.40;99.90;;;;;;5037025;28;20053;-63
2023/11/06 02:33:59;;;;;;;1.90;0.30;;;8.50;99.90;;;;;;5006078;28;20046;-63
2023/11/06 02:36:31;;;;;;;1.17;0.88;;;8.40;99.90;;;;;;5030893;28;20056;-63
2023/11/06 02:38:58;;;;;;;2.65;0.30;;;8.40;99.90;;;;;;5036047;28;20089;-63
2023/11/06 02:41:29;;;;;;;0.90;0.30;;;8.40;99.90;;;;;;5041260;28;20453;-63
2023/11/06 02:44:01;;;;;;;1.30;0.28;;;8.40;99.90;;;;;;5050404;28;20086;-61
2023/11/06 02:46:33;;;;;;;0.95;0.40;;;8.30;99.90;;;;;;5029279;28;20095;-61
2023/11/06 02:49:01;;;;;;;2.08;0.45;;;8.30;99.90;;;;;;5050244;28;20044;-61
2023/11/06 02:51:33;;;;;;;0.98;0.35;;;8.30;99.90;;;;;;5029899;28;20053;-61
2023/11/06 02:54:01;;;;;;;2.30;0.40;;;8.30;99.90;;;;;;5036419;28;20701;-61
2023/11/06 02:56:34;;;;;;;1.10;0.40;;;8.20;99.90;;;;;;5030393;28;20417;-61
2023/11/06 02:59:07;;;;;;;1.05;0.28;;;8.30;99.90;;;;;;5048730;28;20108;-61
2023/11/06 03:01:40;;;;;;;3.10;0.57;;;8.30;99.90;;;;;;5022073;28;20410;-61
2023/11/06 03:04:12;;;;;;;2.38;0.40;;;8.30;99.90;;;;;;5035549;28;20065;-60
2023/11/06 03:06:45;;;;;;;0.90;0.22;;;8.30;99.90;;;;;;5038661;28;20045;-61
2023/11/06 03:09:13;;;;;;;2.10;0.40;;;8.20;99.90;;;;;;5036747;28;20076;-61
2023/11/06 03:11:45;;;;;;;1.17;0.33;;;8.10;99.90;;;;;;5027215;28;21431;-60
2023/11/06 03:14:17;;;;;;;3.00;0.32;;;8.10;99.90;;;;;;5044232;28;20284;-61
2023/11/06 03:16:48;;;;;;;1.33;0.40;;;8.10;99.90;;;;;;5027419;28;20045;-64
2023/11/06 03:19:15;;;;;;;2.03;0.40;;;8.10;99.90;;;;;;5048735;28;20048;-63
2023/11/06 03:21:48;;;;;;;1.17;0.30;;;8.10;99.90;;;;;;5029780;28;20037;-63
2023/11/06 03:24:20;;;;;;;2.38;0.30;;;8.10;99.90;;;;;;5008977;28;20049;-63
2023/11/06 03:26:52;;;;;;;2.72;0.40;;;8.10;99.90;;;;;;5016289;28;20046;-63
2023/11/06 03:29:24;;;;;;;1.35;0.40;;;8.10;99.90;;;;;;5046432;28;20044;-64
2023/11/06 03:31:56;;;;;;;3.67;0.40;;;8.00;99.90;;;;;;5035788;28;20056;-63
2023/11/06 03:34:28;;;;;;;1.15;0.30;;;8.00;99.90;;;;;;5021183;28;20536;-63
2023/11/06 03:37:00;;;;;;;2.88;0.68;;;8.10;99.90;;;;;;5039488;28;20037;-63
2023/11/06 03:39:27;;;;;;;2.22;0.50;;;8.10;99.90;;;;;;5029284;28;20056;-63
2023/11/06 03:41:59;;;;;;;5.03;0.90;;;8.10;99.90;;;;;;5043563;28;20048;-63
2023/11/06 03:44:31;;;;;;;2.38;0.70;;;8.10;99.90;;;;;;5029070;28;20412;-63
2023/11/06 03:47:04;;;;;;;4.73;1.80;;;8.10;99.90;;;;;;5042636;28;20127;-63
2023/11/06 03:49:36;;;;;;;2.10;0.40;;;8.10;99.90;;;;;;5049392;28;20122;-63
2023/11/06 03:52:05;;;;;;;0.68;0.38;;;8.10;99.90;;;;;;5030421;28;20045;-63
2023/11/06 03:54:38;;;;;;;1.65;0.45;;;8.10;99.90;;;;;;5046760;28;20513;-63
2023/11/06 03:57:10;;;;;;;2.90;0.60;;;8.10;99.90;;;;;;5045321;28;20412;-63
2023/11/06 03:59:39;;;;;;;1.58;0.50;;;8.10;99.90;;;;;;5045014;28;20083;-63
2023/11/06 04:02:10;;;;;;;2.20;0.45;;;8.10;99.90;;;;;;5042363;28;20130;-63
2023/11/06 04:04:43;;;;;;;3.17;0.47;;;8.20;99.90;;;;;;5042870;28;20042;-63
2023/11/06 04:07:14;;;;;;;2.33;0.60;;;8.20;99.90;;;;;;5040123;28;20044;-63
2023/11/06 04:09:46;;;;;;;2.20;0.70;;;8.30;99.90;;;;;;5035211;28;20053;-63
2023/11/06 04:12:20;;;;;;;2.63;0.40;;;8.30;99.90;;;;;;5047165;28;20041;-63
2023/11/06 04:14:47;;;;;;;5.07;0.57;;;8.20;99.90;;;;;;5036833;28;20140;-63
2023/11/06 04:17:19;;;;;;;2.10;0.50;;;8.30;99.90;;;;;;5030520;28;20828;-63
2023/11/06 04:19:51;;;;;;;2.03;0.38;;;8.30;99.90;;;;;;5034315;28;20072;-63
2023/11/06 04:22:23;;;;;;;1.75;0.43;;;8.40;99.90;;;;;;5040666;28;20038;-63
2023/11/06 04:24:55;;;;;;;0.95;0.30;;;8.40;99.90;;;;;;5029496;28;20065;-63
2023/11/06 04:27:28;;;;;;;3.80;0.98;;;8.40;99.90;;;;;;5034376;28;20061;-63
2023/11/06 04:29:59;;;;;;;1.55;0.38;;;8.40;99.90;;;;;;5040667;28;20056;-63
2023/11/06 04:32:31;;;;;;;2.25;0.38;;;8.50;99.90;;;;;;5043804;28;20098;-63
2023/11/06 04:35:03;;;;;;;2.63;0.30;;;8.50;99.90;;;;;;5043982;28;20081;-63
2023/11/06 04:37:36;;;;;;;1.17;0.30;;;8.50;99.90;;;;;;5039919;28;20046;-63
2023/11/06 04:40:10;;;;;;;3.00;0.28;;;8.50;99.90;;;;;;5042745;28;20045;-63
2023/11/06 04:42:42;;;;;;;0.88;0.30;;;8.50;99.90;;;;;;5050668;28;20406;-63
2023/11/06 04:45:14;;;;;;;1.20;0.30;;;8.40;99.90;;;;;;5038874;28;20030;-63
2023/11/06 04:47:46;;;;;;;2.00;1.33;;;8.30;99.90;;;;;;5036944;28;20505;-64
2023/11/06 04:50:17;;;;;;;2.63;0.50;;;8.40;99.90;;;;;;5036392;28;20045;-64
2023/11/06 04:52:49;;;;;;;2.53;0.73;;;8.40;99.90;;;;;;5028011;28;20056;-63
2023/11/06 04:55:21;;;;;;;1.00;0.38;;;8.40;99.90;;;;;;5048837;28;20064;-64
2023/11/06 04:57:53;;;;;;;1.77;0.35;;;8.40;99.90;;;;;;5033171;28;20053;-63
2023/11/06 05:00:25;;;;;;;3.67;0.60;;;8.40;99.90;;;;;;5034467;28;20050;-63
2023/11/06 05:02:57;;;;;;;2.33;0.30;;;8.40;99.90;;;;;;5034861;28;20036;-64
2023/11/06 05:05:28;;;;;;;1.80;0.50;;;8.40;99.90;;;;;;5037158;28;20037;-64
2023/11/06 05:08:00;;;;;;;3.05;0.68;;;8.50;99.90;;;;;;5040755;28;20049;-63
2023/11/06 05:10:32;;;;;;;1.55;0.50;;;8.50;99.90;;;;;;5038153;28;20120;-64
2023/11/06 05:13:04;;;;;;;3.45;0.95;;;8.40;99.90;;;;;;5026088;28;20061;-63
2023/11/06 05:15:36;;;;;;;2.80;0.50;;;8.50;99.90;;;;;;5037016;28;20051;-65
2023/11/06 05:18:03;;;;;;;1.55;0.40;;;8.50;99.90;;;;;;5036713;28;20045;-63
2023/11/06 05:20:39;;;;;;;3.05;0.40;;;8.50;99.90;;;;;;5042474;28;20041;-64
2023/11/06 05:23:11;;;;;;;2.67;0.50;;;8.50;99.90;;;;;;5036727;28;20038;-63
2023/11/06 05:25:44;;;;;;;1.52;0.55;;;8.50;99.90;;;;;;5048624;28;20047;-63
2023/11/06 05:28:16;;;;;;;1.67;0.40;;;8.50;99.90;;;;;;5037107;28;20124;-63
2023/11/06 05:30:48;;;;;;;2.78;0.52;;;8.50;99.90;;;;;;5040691;28;20104;-64
2023/11/06 05:33:15;;;;;;;3.13;0.70;;;8.60;99.90;;;;;;5041496;28;20041;-64
2023/11/06 05:35:47;;;;;;;3.88;0.52;;;8.50;99.90;;;;;;5041607;28;20406;-63
2023/11/06 05:38:14;;;;;;;1.65;0.50;;;8.50;99.90;;;;;;5045751;28;20047;-63
2023/11/06 05:40:46;;;;;;;1.80;0.75;;;8.50;99.90;;;;;;5037153;28;20037;-63
2023/11/06 05:43:18;;;;;;;1.00;0.55;;;8.40;99.90;;;;;;5043627;28;20132;-63
2023/11/06 05:45:50;;;;;;;2.03;0.50;;;8.40;99.90;;;;;;5042294;28;20684;-63
2023/11/06 05:48:23;;;;;;;2.05;0.55;;;8.40;99.90;;;;;;5021492;28;20107;-63
2023/11/06 05:50:55;;;;;;;2.75;0.57;;;8.40;99.90;;;;;;5036008;28;20088;-63
2023/11/06 05:53:28;;;;;;;1.48;0.35;;;8.40;99.90;;;;;;5050349;28;20533;-63
2023/11/06 05:55:55;;;;;;;1.30;0.50;;;8.30;99.90;;;;;;5040990;28;20037;-63
2023/11/06 05:58:22;;;;;;;2.38;0.47;;;8.40;99.90;;;;;;5032463;28;20039;-63
2023/11/06 06:00:54;;;;;;;1.45;0.40;;;8.40;99.90;;;;;;5033462;28;20101;-63
2023/11/06 06:03:26;;;;;;;4.18;0.70;;;8.40;99.90;;;;;;5035290;28;20041;-64
2023/11/06 06:05:58;;;;;;;0.73;0.50;;;8.40;99.90;;;;;;5020190;28;20107;-64
2023/11/06 06:08:29;;;;;;;3.00;0.40;;;8.40;99.90;;;;;;5042735;28;20040;-63
2023/11/06 06:11:02;;;;;;;2.05;0.63;;;8.30;99.90;;;;;;5034452;28;20064;-63
2023/11/06 06:13:34;;;;;;;2.08;0.40;;;8.30;99.90;;;;;;5041177;28;20055;-63
2023/11/06 06:16:07;;;;;;;3.00;0.32;;;8.30;99.90;;;;;;5039427;28;20050;-63
2023/11/06 06:18:38;;;;;;;1.73;0.40;;;8.30;99.90;;;;;;5034585;28;20026;-63
2023/11/06 06:21:10;;;;;;;0.40;0.20;;;8.30;99.90;;;;;;5035436;28;20044;-63
2023/11/06 06:23:42;;;;;;;1.38;0.57;;;8.30;99.90;;;;;;5034134;28;20033;-63
2023/11/06 06:26:14;;;;;;;1.38;0.38;;;8.30;99.90;;;;;;5035309;28;20081;-63
2023/11/06 06:28:46;;;;;;;0.93;0.40;;;8.30;99.90;;;;;;5037081;28;20072;-63
2023/11/06 06:31:19;;;;;;;1.25;0.52;;;8.30;99.90;;;;;;5036986;28;20049;-63
2023/11/06 06:33:49;;;;;;;2.47;1.08;;;8.30;99.90;;;;;;5048160;28;20075;-64
2023/11/06 06:36:26;;;;;;;2.63;0.60;;;8.20;99.90;;;;;;5059291;28;20045;-63
2023/11/06 06:39:04;;;;;;;2.28;0.60;;;8.20;99.90;;;;;;5054240;28;20127;-63
2023/11/06 06:41:39;;;;;;;1.05;0.40;;;8.20;99.90;;;;;;5048158;28;20505;-63
2023/11/06 06:44:06;;;;;;;1.17;0.40;;;8.20;99.90;;;;;;5006897;28;20044;-63
2023/11/06 06:46:33;;;;;;;2.17;0.50;;;8.20;99.90;;;;;;5038312;28;20046;-64
2023/11/06 06:49:05;;;;;;;2.00;0.50;;;8.10;99.90;;;;;;5041528;28;20103;-63
2023/11/06 06:51:32;;;;;;;1.95;0.40;;;8.10;99.90;;;;;;5033990;28;20522;-63
2023/11/06 06:54:04;;;;;;;1.10;0.40;;;8.20;99.90;;;;;;5046605;28;20062;-63
2023/11/06 06:56:37;;;;;;;2.17;0.45;;;8.10;99.90;;;;;;5050040;28;20033;-63
2023/11/06 06:59:08;;;;;;;2.83;0.47;;;8.10;99.90;;;;;;5034294;28;20107;-63
2023/11/06 07:01:35;;;;;;;2.35;0.50;;;8.10;99.90;;;;;;5044079;28;20152;-63
2023/11/06 07:04:07;;;;;;;3.13;0.47;;;8.10;99.90;;;;;;5036427;28;20406;-63
2023/11/06 07:06:39;;;;;;;3.28;0.40;;;8.10;99.90;;;;;;5033907;28;20179;-63
2023/11/06 07:09:08;;;;;;;3.13;0.50;;;8.20;99.90;;;;;;5031295;28;20454;-63
2023/11/06 07:11:40;;;;;;;2.88;0.65;;;8.30;99.90;;;;;;5039175;28;20032;-63
2023/11/06 07:14:12;;;;;;;2.45;1.10;;;8.30;99.90;;;;;;5042107;28;20044;-63
2023/11/06 07:16:44;;;;;;;2.03;0.50;;;8.30;99.90;;;;;;5034698;28;20056;-63
2023/11/06 07:19:11;;;;;;;1.95;0.60;;;8.40;99.90;;;;;;5038455;28;20049;-63
2023/11/06 07:21:43;;;;;;;2.75;0.52;;;8.40;99.90;;;;;;5030638;28;20034;-63
2023/11/06 07:24:15;;;;;;;2.15;0.60;;;8.40;99.90;;;;;;5030318;28;20128;-63
2023/11/06 07:26:47;;;;;;;1.20;0.50;;;8.50;99.90;;;;;;5037667;28;20117;-63
2023/11/06 07:29:18;;;;;;;1.65;1.02;;;8.60;99.90;;;;;;5032220;28;20409;-63
2023/11/06 07:31:50;;;;;;;1.10;0.55;;;8.60;99.90;;;;;;5029032;28;20045;-63
2023/11/06 07:34:24;;;;;;;2.70;0.60;;;8.70;99.90;;;;;;5020845;28;20094;-63
2023/11/06 07:36:51;;;;;;;2.55;0.50;;;8.80;99.90;;;;;;5039001;28;20041;-64
2023/11/06 07:39:23;;;;;;;1.10;0.40;;;8.80;99.90;;;;;;5034422;28;20037;-67
2023/11/06 07:41:55;;;;;;;0.95;0.43;;;8.90;99.90;;;;;;5035706;28;20040;-63
2023/11/06 07:44:27;;;;;;;2.40;0.57;;;8.90;99.90;;;;;;5039118;28;20041;-63
2023/11/06 07:47:00;;;;;;;2.28;0.60;;;8.90;99.90;;;;;;5042776;28;20131;-64
2023/11/06 07:49:32;;;;;;;1.58;0.60;;;9.00;99.90;;;;;;5042425;28;20049;-63
2023/11/06 07:52:01;;;;;;;2.05;0.43;;;9.10;99.90;;;;;;5037453;28;20387;-63
2023/11/06 07:54:35;;;;;;;0.90;0.40;;;9.10;99.90;;;;;;5042132;28;20128;-63
2023/11/06 07:57:02;;;;;;;1.55;0.47;;;9.20;99.90;;;;;;5033002;28;20055;-64
2023/11/06 07:59:29;;;;;;;1.58;0.55;;;9.20;99.90;;;;;;5027865;28;20146;-63
2023/11/06 08:01:56;;;;;;;0.47;0.35;;;9.30;99.90;;;;;;5023064;28;20044;-63
2023/11/06 08:04:28;;;;;;;1.05;0.65;;;9.30;99.90;;;;;;5033393;28;20049;-63
2023/11/06 08:06:55;;;;;;;1.83;0.50;;;9.40;99.90;;;;;;5039779;28;20126;-63
2023/11/06 08:09:28;;;;;;;1.00;0.57;;;9.40;99.90;;;;;;5036119;28;20036;-64
2023/11/06 08:12:00;;;;;;;2.63;0.93;;;9.40;99.90;;;;;;5034151;28;20041;-63
2023/11/06 08:14:34;;;;;;;3.15;0.90;;;9.40;99.90;;;;;;5045543;28;20044;-63
2023/11/06 08:17:07;;;;;;;0.90;0.50;;;9.50;99.90;;;;;;5038512;28;20042;-63
2023/11/06 08:19:40;;;;;;;;;;;9.60;99.90;;;;;;5037867;28;20049;-63
2023/11/06 08:22:12;;;;;;;1.45;0.40;;;9.60;99.90;;;;;;5036201;28;19990;-63
2023/11/06 08:24:44;;;;;;;1.90;0.32;;;9.60;99.90;;;;;;5039583;28;20116;-63
2023/11/06 08:27:16;;;;;;;1.70;0.60;;;9.70;99.90;;;;;;5029699;28;20536;-64
2023/11/06 08:29:48;;;;;;;2.08;0.70;;;9.70;99.90;;;;;;5027511;28;20053;-63
2023/11/06 08:32:20;;;;;;;1.17;0.40;;;9.70;99.90;;;;;;5037943;28;20603;-63
2023/11/06 08:34:52;;;;;;;5.30;0.77;;;9.80;99.90;;;;;;5034005;28;20049;-63
2023/11/06 08:37:18;;;;;;;2.13;0.50;;;9.90;99.90;;;;;;5038339;28;20048;-63
2023/11/06 08:39:50;;;;;;;3.83;0.50;;;9.90;99.90;;;;;;5027264;28;20073;-63
2023/11/06 08:42:22;;;;;;;2.75;0.80;;;9.90;99.90;;;;;;5028139;28;20063;-63
2023/11/06 08:44:54;;;;;;;1.80;1.05;;;10.00;99.90;;;;;;5034312;28;20363;-63
2023/11/06 08:47:26;;;;;;;6.97;5.60;;;10.00;99.90;;;;;;5050735;28;20045;-63
2023/11/06 08:49:57;;;;;;;9.52;7.82;;;10.00;99.90;;;;;;5025215;28;20524;-63
2023/11/06 08:52:29;;;;;;;2.63;2.05;;;10.10;99.90;;;;;;5034683;28;20047;-63
2023/11/06 08:55:01;;;;;;;2.00;0.75;;;10.10;99.90;;;;;;5030356;28;20053;-63
2023/11/06 08:57:30;;;;;;;3.58;2.90;;;10.10;99.90;;;;;;5031093;28;20033;-63
2023/11/06 09:00:01;;;;;;;;;;;10.20;99.90;;;;;;5024353;28;20049;-63
2023/11/06 09:02:33;;;;;;;9.02;8.25;;;10.20;99.90;;;;;;5025583;28;20377;-63
2023/11/06 09:05:06;;;;;;;2.25;1.30;;;10.30;99.90;;;;;;5032567;28;20798;-64
2023/11/06 09:07:38;;;;;;;1.67;0.40;;;10.30;99.90;;;;;;5027800;28;20045;-64
2023/11/06 09:10:10;;;;;;;1.10;0.35;;;10.40;99.90;;;;;;5026273;28;20518;-69
2023/11/06 09:12:42;;;;;;;4.07;0.90;;;10.40;99.90;;;;;;5032472;28;20413;-64
2023/11/06 09:15:14;;;;;;;1.23;0.40;;;10.50;99.90;;;;;;5032547;28;20045;-64
2023/11/06 09:17:46;;;;;;;1.80;0.60;;;10.60;99.90;;;;;;5032399;28;20244;-64
2023/11/06 09:20:18;;;;;;;2.08;0.47;;;10.70;99.90;;;;;;5031402;28;20087;-64
2023/11/06 09:22:44;;;;;;;0.95;0.32;;;10.70;99.90;;;;;;5034100;28;20496;-64
2023/11/06 09:25:16;;;;;;;0.90;0.30;;;10.70;99.90;;;;;;5026719;28;20045;-64
2023/11/06 09:27:48;;;;;;;1.98;0.32;;;10.80;99.90;;;;;;5029889;28;20060;-64
2023/11/06 09:30:19;;;;;;;1.15;0.35;;;10.80;99.90;;;;;;5029683;28;20049;-64
2023/11/06 09:32:51;;;;;;;1.23;0.20;;;10.80;99.90;;;;;;5036332;28;20057;-64
2023/11/06 09:35:24;;;;;;;1.00;0.40;;;10.80;99.90;;;;;;5033888;28;20520;-64
2023/11/06 09:37:51;;;;;;;1.13;0.40;;;10.90;99.90;;;;;;5032881;28;20567;-64
2023/11/06 09:40:23;;;;;;;1.10;0.65;;;10.90;99.90;;;;;;5031285;28;20042;-64
2023/11/06 09:42:55;;;;;;;1.83;0.40;;;11.00;99.90;;;;;;5038319;28;20076;-64
2023/11/06 09:45:27;;;;;;;1.60;0.38;;;11.00;99.90;;;;;;5037647;28;20421;-64
2023/11/06 09:47:58;;;;;;;1.88;0.40;;;11.10;99.90;;;;;;5039037;28;20416;-64
2023/11/06 09:50:30;;;;;;;1.83;0.40;;;11.20;99.90;;;;;;5051908;28;20051;-64
2023/11/06 09:53:02;;;;;;;1.98;0.30;;;11.30;99.90;;;;;;5035225;28;20053;-64
2023/11/06 09:55:35;;;;;;;1.75;0.40;;;11.30;99.90;;;;;;5029854;28;20053;-64
2023/11/06 09:58:08;;;;;;;1.05;0.40;;;11.40;99.90;;;;;;5037045;28;20041;-64
2023/11/06 10:00:41;;;;;;;;;;;11.50;99.90;;;;;;5026074;28;20458;-63
2023/11/06 10:03:14;;;;;;;0.95;0.40;;;11.60;99.90;;;;;;5035282;28;19932;-64
2023/11/06 10:05:41;;;;;;;0.70;0.30;;;11.60;99.90;;;;;;5028212;28;20055;-64
2023/11/06 10:08:08;;;;;;;0.70;0.30;;;11.60;99.90;;;;;;5026765;28;20033;-64
2023/11/06 10:10:41;;;;;;;0.63;0.30;;;11.60;99.90;;;;;;5035965;28;20430;-64
2023/11/06 10:13:13;;;;;;;1.20;0.30;;;11.70;99.90;;;;;;5029090;28;20044;-64
2023/11/06 10:15:45;;;;;;;1.58;0.30;;;11.70;99.90;;;;;;5029358;28;20108;-64
2023/11/06 10:18:19;;;;;;;0.50;0.30;;;11.70;99.90;;;;;;5028983;28;20543;-64
2023/11/06 10:20:55;;;;;;;0.50;0.22;;;11.80;99.90;;;;;;5030359;28;20046;-64
2023/11/06 10:23:27;;;;;;;2.10;0.38;;;11.90;99.90;;;;;;5032946;28;20096;-64
2023/11/06 10:26:15;;;;;;;1.48;0.70;;;11.80;99.90;;;;;;5033762;28;20042;-64
2023/11/06 10:28:47;;;;;;;0.50;0.30;;;11.80;99.90;;;;;;5027899;28;20535;-64
2023/11/06 10:31:36;;;;;;;1.38;0.40;;;11.70;99.90;;;;;;5026942;28;20046;-64
2023/11/06 10:34:31;;;;;;;0.52;0.20;;;11.60;99.90;;;;;;5017595;28;20131;-64
2023/11/06 10:37:10;;;;;;;0.47;0.30;;;11.50;99.90;;;;;;5024173;28;20502;-64
2023/11/06 10:39:56;;;;;;;0.95;0.30;;;11.50;99.90;;;;;;5027259;28;20042;-64
2023/11/06 10:42:28;;;;;;;0.75;0.25;;;11.60;99.90;;;;;;5033155;28;20037;-64
2023/11/06 10:45:01;;;;;;;2.33;0.45;;;11.70;99.90;;;;;;5029365;28;20035;-63
2023/11/06 10:47:33;;;;;;;1.27;0.30;;;11.70;99.90;;;;;;5031275;28;20033;-64
2023/11/06 10:50:11;;;;;;;2.55;0.35;;;11.70;99.90;;;;;;5055960;28;20058;-64
2023/11/06 10:52:41;;;;;;;1.08;0.38;;;11.70;99.90;;;;;;5030206;28;20037;-64
2023/11/06 10:55:08;;;;;;;4.32;0.40;;;11.80;99.90;;;;;;5030191;28;20091;-64
2023/11/06 10:57:43;;;;;;;1.15;0.30;;;12.00;99.90;;;;;;5033123;28;20045;-62
2023/11/06 11:00:19;;;;;;;1.75;0.38;;;12.10;99.90;;;;;;5035656;28;20087;-64
2023/11/06 11:02:56;;;;;;;1.52;0.30;;;12.10;99.90;;;;;;5031074;28;20122;-64
2023/11/06 11:05:29;;;;;;;2.05;0.50;;;11.90;99.90;;;;;;5028680;28;20581;-64
2023/11/06 11:08:01;;;;;;;1.23;0.35;;;11.90;99.90;;;;;;5032988;28;20068;-64
2023/11/06 11:10:33;;;;;;;1.80;0.32;;;12.00;99.90;;;;;;5033493;28;20045;-64
2023/11/06 11:13:02;;;;;;;1.88;0.50;;;12.00;99.90;;;;;;5037813;28;20047;-64
2023/11/06 11:15:34;;;;;;;0.75;0.30;;;11.90;99.90;;;;;;5034029;28;20041;-64
2023/11/06 11:18:13;;;;;;;0.73;0.28;;;11.90;99.90;;;;;;5037339;28;20048;-65
2023/11/06 11:20:59;;;;;;;1.00;0.20;;;12.10;99.90;;;;;;5039574;28;20270;-64
2023/11/06 11:23:39;;;;;;;2.30;0.50;;;12.20;99.90;;;;;;5038554;28;20128;-64
2023/11/06 11:26:12;;;;;;;2.17;0.38;;;12.30;99.90;;;;;;5037111;28;20109;-64
2023/11/06 11:29:00;;;;;;;2.53;0.30;;;12.40;99.90;;;;;;5033070;28;20068;-64
2023/11/06 11:31:44;;;;;;;0.68;0.40;;;12.40;99.90;;;;;;5048505;28;20538;-64
2023/11/06 11:34:27;;;;;;;3.72;0.40;;;12.50;99.90;;;;;;5027802;28;20702;-64
2023/11/06 11:36:59;;;;;;;1.50;0.40;;;12.50;99.90;;;;;;5027246;28;20041;-64
2023/11/06 11:39:51;;;;;;;2.15;1.15;;;12.50;99.90;;;;;;5034058;28;20064;-64
2023/11/06 11:42:23;;;;;;;1.40;0.38;;;12.60;99.90;;;;;;5034742;28;20041;-64
2023/11/06 11:45:06;;;;;;;1.35;0.38;;;12.70;99.90;;;;;;5034157;28;20045;-63
2023/11/06 11:47:48;;;;;;;1.02;0.30;;;12.70;99.90;;;;;;5032674;28;20573;-64
2023/11/06 11:50:26;;;;;;;1.20;0.30;;;12.80;99.90;;;;;;5035116;28;20124;-64
2023/11/06 11:52:58;;;;;;;1.38;0.30;;;12.80;99.90;;;;;;5038302;28;20501;-64
2023/11/06 11:55:35;;;;;;;0.73;0.30;;;12.90;99.90;;;;;;5033566;28;20038;-64
2023/11/06 11:58:11;;;;;;;1.77;0.68;;;13.00;99.90;;;;;;5035074;28;20038;-64
2023/11/06 12:00:45;;;;;;;0.60;0.32;;;13.00;99.90;;;;;;5033912;28;20037;-64
2023/11/06 12:03:17;;;;;;;1.77;0.30;;;13.10;99.90;;;;;;5031596;28;20056;-64
2023/11/06 12:05:53;;;;;;;1.48;0.47;;;13.20;99.90;;;;;;5033744;28;20124;-64
2023/11/06 12:08:26;;;;;;;1.05;0.50;;;13.20;99.90;;;;;;5027057;28;20409;-64
2023/11/06 12:11:08;;;;;;;0.73;0.35;;;13.30;99.90;;;;;;5028074;28;20045;-64
2023/11/06 12:13:39;;;;;;;1.75;0.30;;;13.20;99.90;;;;;;5030078;28;20615;-63
2023/11/06 12:16:12;;;;;;;0.43;0.28;;;13.10;99.90;;;;;;5033398;28;20059;-64
2023/11/06 12:18:44;;;;;;;0.93;0.22;;;13.10;99.90;;;;;;5002915;28;20116;-64
2023/11/06 12:21:16;;;;;;;0.60;0.30;;;13.20;99.90;;;;;;5036953;28;20216;-64
2023/11/06 12:23:48;;;;;;;1.05;0.30;;;13.20;99.90;;;;;;5036511;28;20037;-64
2023/11/06 12:26:20;;;;;;;1.73;0.47;;;13.10;99.90;;;;;;5034776;28;20087;-64
2023/11/06 12:28:52;;;;;;;1.42;0.30;;;13.10;99.90;;;;;;5035466;28;20115;-64
2023/11/06 12:31:34;;;;;;;0.30;0.20;;;13.10;99.90;;;;;;5033418;28;20575;-64
2023/11/06 12:34:01;;;;;;;0.88;0.30;;;13.20;99.90;;;;;;5036022;28;20041;-64
2023/11/06 12:36:35;;;;;;;2.42;0.32;;;13.20;99.90;;;;;;5021298;28;20056;-64
2023/11/06 12:39:24;;;;;;;1.77;0.52;;;13.20;99.90;;;;;;5025908;28;20037;-64
2023/11/06 12:42:01;;;;;;;0.93;0.50;;;13.10;99.90;;;;;;5025690;28;20414;-63
2023/11/06 12:44:38;;;;;;;1.08;0.28;;;13.00;99.90;;;;;;5032076;28;20126;-64
2023/11/06 12:47:11;;;;;;;1.88;0.60;;;12.70;99.90;;;;;;5031032;28;20045;-64
2023/11/06 12:49:52;;;;;;;1.40;0.20;;;12.60;99.90;;;;;;5030039;28;20100;-64
2023/11/06 12:52:26;;;;;;;2.42;0.32;;;12.50;99.90;;;;;;5028777;28;20261;-64
2023/11/06 12:54:58;;;;;;;1.40;0.60;;;12.30;99.90;;;;;;5030857;28;20116;-64
2023/11/06 12:57:29;;;;;;;2.35;0.38;;;12.30;99.90;;;;;;5038173;28;20067;-63
2023/11/06 13:00:00;;;;;;;0.95;0.40;;;12.30;99.90;;;;;;5032330;28;20412;-63
2023/11/06 13:02:33;;;;;;;0.47;0.20;;;12.30;99.90;;;;;;5034583;28;20056;-63
2023/11/06 13:05:09;;;;;;;2.25;0.35;;;12.40;99.90;;;;;;5029965;28;20710;-64
2023/11/06 13:07:48;;;;;;;0.52;0.20;;;12.40;99.90;;;;;;5025114;28;20033;-64
2023/11/06 13:10:21;;;;;;;0.82;0.40;;;12.50;99.90;;;;;;5036992;28;20064;-64
2023/11/06 13:12:53;;;;;;;1.85;0.30;;;12.50;99.90;;;;;;5034799;28;20049;-64
2023/11/06 13:15:25;;;;;;;0.55;0.28;;;12.50;99.90;;;;;;5039578;28;20067;-65
2023/11/06 13:17:54;;;;;;;2.38;0.57;;;12.60;99.90;;;;;;5038429;28;20037;-64
2023/11/06 13:20:28;;;;;;;2.25;0.50;;;12.70;99.90;;;;;;5039833;28;20037;-65